Terminal Aerodrome Forecast
Issued by NWS

Home | Current Version | Previous Version | Text Only | Print | Product List | Glossary On
Versions: 1 2 3 4 5 6 7 8 9 10 11 12 13 14 15 16 17 18 19 20 21 22 23 24 25 26 27 28
000
FTAK31 PAJK 212333
TAFAPG
TAF
PAPG 212333Z 2200/2224 VRB05KT 6SM -RA BR SCT015 OVC025
      WS020/15030KT
     FM220600 10016G26KT 5SM -RA BR BKN020 OVC035 WS020/14045KT
     FM220900 11020G32KT 3SM RA BR BKN025 OVC040 WS020/14045KT
     FM221400 12028G43KT 3SM RA BR BKN015 OVC025 WS020/14045KT
     FM221800 22020G30KT P6SM -SHRA SCT025 OVC040
     FM222100 24012G22KT P6SM -SHRA SCT025 OVC040
     AMD LTD TO CLD VIS AND WIND 2206/2215=

USA.gov is the U.S. government's official web portal to all federal, state and local government web resources and services.